Time;durP1;ratioP1;P1;durP2;ratioP2;P2;SDS_P1;SDS_P2;PMS_P1;PMS_P2;Temp;Humidity;BMP_temperature;BMP_pressure;BME280_temperature;BME280_humidity;BME280_pressure;Samples;Min_cycle;Max_cycle;Signal;HPM_P1;HPM_P2
2022/01/04 00:02:01;;;;;;;1.70;1.60;;;;;;;;;;5056411;28;20586;-84
2022/01/04 00:04:28;;;;;;;1.93;1.60;;;;;;;;;;5055194;28;20248;-85
2022/01/04 00:06:57;;;;;;;1.87;1.70;;;;;;;;;;5058450;28;20202;-83
2022/01/04 00:09:24;;;;;;;1.73;1.70;;;;;;;;;;5055803;28;20656;-84
2022/01/04 00:13:21;;;;;;;1.80;1.70;;;;;;;;;;5056502;28;20206;-85
2022/01/04 00:14:44;;;;;;;2.87;2.10;;;;;;;;;;5054526;28;20233;-84
2022/01/04 00:17:11;;;;;;;1.37;1.37;;;;;;;;;;5055397;28;20202;-84
2022/01/04 00:19:38;;;;;;;2.40;1.60;;;;;;;;;;5055638;28;20725;-84
2022/01/04 00:22:08;;;;;;;1.77;1.67;;;;;;;;;;5055542;28;20206;-84
2022/01/04 00:24:35;;;;;;;2.80;1.80;;;;;;;;;;5055400;28;20260;-85
2022/01/04 00:27:02;;;;;;;1.90;1.80;;;;;;;;;;5055946;28;20671;-84
2022/01/04 00:29:29;;;;;;;1.80;1.70;;;;;;;;;;5053523;28;20238;-86
2022/01/04 00:31:56;;;;;;;1.47;1.47;;;;;;;;;;5056045;28;20199;-85
2022/01/04 00:34:23;;;;;;;1.67;1.57;;;;;;;;;;5054557;28;20705;-85
2022/01/04 00:36:50;;;;;;;1.90;1.80;;;;;;;;;;5055937;28;20601;-84
2022/01/04 00:39:19;;;;;;;1.80;1.70;;;;;;;;;;5054942;28;20307;-84
2022/01/04 00:41:46;;;;;;;1.70;1.60;;;;;;;;;;5055862;28;20734;-85
2022/01/04 00:44:13;;;;;;;1.70;1.60;;;;;;;;;;5054893;28;20233;-85
2022/01/04 00:46:40;;;;;;;1.77;1.67;;;;;;;;;;5055576;28;20762;-85
2022/01/04 00:49:10;;;;;;;2.00;1.90;;;;;;;;;;5054848;28;20241;-85
2022/01/04 00:51:37;;;;;;;1.70;1.60;;;;;;;;;;5062848;28;20193;-85
2022/01/04 00:54:06;;;;;;;1.90;1.80;;;;;;;;;;5074642;28;20237;-85
2022/01/04 00:56:34;;;;;;;1.97;1.87;;;;;;;;;;5075972;28;20596;-84
2022/01/04 00:59:02;;;;;;;1.80;1.70;;;;;;;;;;5074194;28;20241;-84
2022/01/04 01:01:29;;;;;;;1.87;1.77;;;;;;;;;;5075256;28;20407;-85
2022/01/04 01:03:56;;;;;;;1.33;1.33;;;;;;;;;;5075432;28;20638;-84
2022/01/04 01:06:24;;;;;;;1.90;1.80;;;;;;;;;;5075729;28;20208;-85
2022/01/04 01:08:51;;;;;;;1.83;1.73;;;;;;;;;;5075742;28;20248;-84
2022/01/04 01:11:18;;;;;;;1.90;1.80;;;;;;;;;;5074502;28;20669;-84
2022/01/04 01:13:47;;;;;;;1.90;1.80;;;;;;;;;;5054122;28;20287;-85
2022/01/04 01:16:14;;;;;;;1.53;1.50;;;;;;;;;;5055530;28;20276;-84
2022/01/04 01:18:41;;;;;;;1.80;1.67;;;;;;;;;;5053822;28;20256;-84
2022/01/04 01:21:09;;;;;;;1.80;1.70;;;;;;;;;;5055583;28;20206;-85
2022/01/04 01:23:37;;;;;;;1.80;1.70;;;;;;;;;;5055380;28;20262;-85
2022/01/04 01:26:05;;;;;;;2.00;1.90;;;;;;;;;;5055320;28;20202;-84
2022/01/04 01:28:33;;;;;;;1.83;1.73;;;;;;;;;;5056177;28;20246;-84
2022/01/04 01:31:01;;;;;;;2.80;1.90;;;;;;;;;;5054941;28;20619;-85
2022/01/04 01:33:29;;;;;;;4.60;1.93;;;;;;;;;;5054237;28;20274;-84
2022/01/04 01:35:56;;;;;;;1.50;1.50;;;;;;;;;;5055602;28;20210;-84
2022/01/04 01:38:23;;;;;;;1.70;1.60;;;;;;;;;;5055494;28;20452;-85
2022/01/04 01:40:51;;;;;;;1.90;1.80;;;;;;;;;;5056626;28;20663;-85
2022/01/04 01:43:18;;;;;;;1.90;1.80;;;;;;;;;;5054246;28;20257;-84
2022/01/04 01:45:45;;;;;;;1.70;1.60;;;;;;;;;;5055483;28;20209;-85
2022/01/04 01:48:14;;;;;;;2.00;1.90;;;;;;;;;;5054994;28;20887;-84
2022/01/04 01:50:41;;;;;;;2.00;1.90;;;;;;;;;;5055330;28;20674;-85
2022/01/04 01:53:09;;;;;;;1.90;1.80;;;;;;;;;;5054635;28;20233;-84
2022/01/04 01:55:36;;;;;;;2.40;2.00;;;;;;;;;;5055820;28;20258;-85
2022/01/04 01:58:05;;;;;;;2.13;2.03;;;;;;;;;;5054098;28;20234;-84
2022/01/04 02:00:32;;;;;;;1.60;1.50;;;;;;;;;;5063869;28;20229;-85
2022/01/04 02:03:01;;;;;;;1.70;1.70;;;;;;;;;;5055650;28;20229;-85
2022/01/04 02:05:29;;;;;;;1.77;1.67;;;;;;;;;;5057078;28;20877;-84
2022/01/04 02:07:57;;;;;;;1.77;1.67;;;;;;;;;;5090399;28;20228;-83
2022/01/04 02:10:24;;;;;;;2.23;2.03;;;;;;;;;;5101786;28;20216;-83
2022/01/04 02:12:52;;;;;;;3.50;3.20;;;;;;;;;;5089075;28;20209;-84
2022/01/04 02:15:20;;;;;;;3.87;3.57;;;;;;;;;;5077232;28;20421;-84
2022/01/04 02:17:48;;;;;;;6.13;4.30;;;;;;;;;;5080915;28;20217;-84
2022/01/04 02:20:17;;;;;;;5.53;4.53;;;;;;;;;;5073337;28;20218;-84
2022/01/04 02:22:44;;;;;;;5.77;5.10;;;;;;;;;;5059454;28;20232;-84
2022/01/04 02:25:12;;;;;;;5.03;4.20;;;;;;;;;;5060522;28;20206;-85
2022/01/04 02:27:39;;;;;;;5.43;4.97;;;;;;;;;;5079650;28;20205;-84
2022/01/04 02:30:08;;;;;;;4.40;4.00;;;;;;;;;;5077084;28;20214;-84
2022/01/04 02:32:35;;;;;;;3.23;3.03;;;;;;;;;;5071049;28;20827;-83
2022/01/04 02:35:02;;;;;;;4.07;3.47;;;;;;;;;;5080095;28;20229;-84
2022/01/04 02:37:32;;;;;;;6.10;4.40;;;;;;;;;;5080819;28;20229;-85
2022/01/04 02:40:00;;;;;;;4.73;3.83;;;;;;;;;;5078479;28;20232;-85
2022/01/04 02:42:27;;;;;;;2.70;2.50;;;;;;;;;;5071058;28;20202;-84
2022/01/04 02:44:54;;;;;;;3.10;2.90;;;;;;;;;;5077906;28;20222;-84
2022/01/04 02:47:22;;;;;;;4.07;3.30;;;;;;;;;;5062195;28;20205;-83
2022/01/04 02:49:49;;;;;;;3.53;2.97;;;;;;;;;;5060021;28;20240;-84
2022/01/04 02:52:16;;;;;;;3.00;2.70;;;;;;;;;;5073669;28;20202;-84
2022/01/04 02:54:44;;;;;;;2.70;2.53;;;;;;;;;;5068907;28;20237;-84
2022/01/04 02:57:11;;;;;;;3.13;2.93;;;;;;;;;;5085567;28;20224;-83
2022/01/04 02:59:39;;;;;;;3.60;3.30;;;;;;;;;;5084036;28;20233;-84
2022/01/04 03:02:06;;;;;;;4.63;3.13;;;;;;;;;;5080290;28;20202;-85
2022/01/04 03:04:33;;;;;;;4.63;3.77;;;;;;;;;;5082561;28;20232;-84
2022/01/04 03:07:02;;;;;;;4.83;3.70;;;;;;;;;;5090382;28;20670;-83
2022/01/04 03:09:29;;;;;;;3.90;3.60;;;;;;;;;;5082596;28;20232;-82
2022/01/04 03:11:57;;;;;;;3.37;2.93;;;;;;;;;;5066595;28;20209;-82
2022/01/04 03:14:25;;;;;;;3.47;3.20;;;;;;;;;;5063536;28;20245;-82
2022/01/04 03:16:52;;;;;;;3.50;3.10;;;;;;;;;;5064123;28;20232;-82
2022/01/04 03:19:19;;;;;;;5.13;3.10;;;;;;;;;;5062940;28;20241;-83
2022/01/04 03:21:46;;;;;;;3.00;2.80;;;;;;;;;;5062276;28;20623;-83
2022/01/04 03:24:14;;;;;;;2.73;2.53;;;;;;;;;;5061330;28;20241;-83
2022/01/04 03:26:41;;;;;;;2.50;2.33;;;;;;;;;;5061362;28;20210;-83
2022/01/04 03:29:10;;;;;;;4.33;2.97;;;;;;;;;;5060987;28;20237;-81
2022/01/04 03:31:37;;;;;;;2.40;2.20;;;;;;;;;;5061081;28;20209;-83
2022/01/04 03:34:04;;;;;;;3.20;3.00;;;;;;;;;;5061069;28;20226;-82
2022/01/04 03:36:31;;;;;;;3.00;2.50;;;;;;;;;;5060918;28;20224;-83
2022/01/04 03:38:59;;;;;;;3.00;2.80;;;;;;;;;;5061705;28;20238;-82
2022/01/04 03:41:27;;;;;;;3.10;2.80;;;;;;;;;;5082299;28;20571;-82
2022/01/04 03:43:54;;;;;;;3.00;2.70;;;;;;;;;;5082771;28;20248;-82
2022/01/04 03:46:23;;;;;;;3.20;2.90;;;;;;;;;;5081608;28;20201;-82
2022/01/04 03:48:50;;;;;;;2.90;2.70;;;;;;;;;;5084924;28;20244;-83
2022/01/04 03:51:18;;;;;;;2.70;2.50;;;;;;;;;;5083303;28;20661;-83
2022/01/04 03:53:45;;;;;;;4.23;2.80;;;;;;;;;;5080389;28;20244;-83
2022/01/04 03:56:12;;;;;;;2.50;2.40;;;;;;;;;;5086643;28;20198;-83
2022/01/04 03:58:39;;;;;;;2.80;2.60;;;;;;;;;;5084747;28;20245;-82
2022/01/04 04:01:07;;;;;;;3.13;2.93;;;;;;;;;;5104363;28;20209;-83
2022/01/04 04:03:35;;;;;;;2.10;2.00;;;;;;;;;;5103982;28;20224;-81
2022/01/04 04:06:02;;;;;;;2.20;2.10;;;;;;;;;;5095985;28;20202;-84
2022/01/04 04:08:29;;;;;;;3.93;3.30;;;;;;;;;;5084705;28;20240;-83
2022/01/04 04:10:56;;;;;;;2.93;2.60;;;;;;;;;;5104626;28;20234;-82
2022/01/04 04:13:23;;;;;;;1.83;1.70;;;;;;;;;;5102666;28;20236;-82
2022/01/04 04:15:50;;;;;;;3.30;2.43;;;;;;;;;;5100379;28;20207;-82
2022/01/04 04:18:18;;;;;;;2.40;2.30;;;;;;;;;;5101958;28;20239;-82
2022/01/04 04:20:47;;;;;;;2.13;2.00;;;;;;;;;;5089493;28;20209;-82
2022/01/04 04:23:14;;;;;;;2.27;2.13;;;;;;;;;;5086371;28;20225;-82
2022/01/04 04:25:41;;;;;;;2.30;2.20;;;;;;;;;;5081261;28;20669;-81
2022/01/04 04:28:08;;;;;;;2.63;2.50;;;;;;;;;;5080810;28;20225;-82
2022/01/04 04:30:36;;;;;;;2.60;2.37;;;;;;;;;;5082846;28;20197;-82
2022/01/04 04:33:03;;;;;;;1.50;1.50;;;;;;;;;;5081894;28;20229;-82
2022/01/04 04:35:31;;;;;;;2.47;2.27;;;;;;;;;;5083703;28;20216;-81
2022/01/04 04:37:59;;;;;;;1.67;1.57;;;;;;;;;;5084064;28;20241;-81
2022/01/04 04:40:26;;;;;;;1.80;1.70;;;;;;;;;;5083057;28;20229;-82
2022/01/04 04:42:53;;;;;;;2.87;2.27;;;;;;;;;;5083424;28;20233;-82
2022/01/04 04:45:21;;;;;;;2.40;2.30;;;;;;;;;;5083471;28;20209;-81
2022/01/04 04:47:48;;;;;;;2.10;2.00;;;;;;;;;;5084396;28;20555;-82
2022/01/04 04:50:15;;;;;;;2.50;2.30;;;;;;;;;;5084347;28;20709;-82
2022/01/04 04:52:42;;;;;;;2.50;2.30;;;;;;;;;;5083865;28;20198;-82
2022/01/04 04:55:11;;;;;;;1.90;1.80;;;;;;;;;;5083361;28;20206;-82
2022/01/04 04:57:38;;;;;;;2.10;2.00;;;;;;;;;;5082659;28;20240;-81
2022/01/04 05:00:06;;;;;;;1.97;1.87;;;;;;;;;;5089549;28;20225;-81
2022/01/04 05:02:33;;;;;;;2.43;2.27;;;;;;;;;;5101678;28;20254;-81
2022/01/04 05:05:00;;;;;;;1.67;1.57;;;;;;;;;;5102833;28;20200;-81
2022/01/04 05:07:27;;;;;;;3.93;2.00;;;;;;;;;;5103506;28;20208;-82
2022/01/04 05:09:54;;;;;;;2.13;2.03;;;;;;;;;;5102597;28;20616;-83
2022/01/04 05:12:23;;;;;;;1.80;1.70;;;;;;;;;;5102877;28;20205;-82
2022/01/04 05:14:50;;;;;;;1.87;1.77;;;;;;;;;;5105251;28;20228;-81
2022/01/04 05:17:17;;;;;;;1.60;1.53;;;;;;;;;;5105153;28;20227;-82
2022/01/04 05:19:44;;;;;;;1.80;1.70;;;;;;;;;;5104955;28;20731;-83
2022/01/04 05:22:11;;;;;;;2.10;1.70;;;;;;;;;;5105400;28;20212;-81
2022/01/04 05:24:38;;;;;;;2.00;1.90;;;;;;;;;;5105260;28;20235;-83
2022/01/04 05:27:06;;;;;;;1.77;1.67;;;;;;;;;;5105303;28;20213;-81
2022/01/04 05:29:34;;;;;;;2.13;2.03;;;;;;;;;;5104478;28;20247;-82
2022/01/04 05:32:02;;;;;;;1.93;1.70;;;;;;;;;;5104951;28;20212;-81
2022/01/04 05:34:29;;;;;;;2.90;2.70;;;;;;;;;;5104556;28;20650;-83
2022/01/04 05:36:56;;;;;;;1.80;1.70;;;;;;;;;;5104669;28;20228;-81
2022/01/04 05:39:23;;;;;;;4.03;2.60;;;;;;;;;;5104823;28;20244;-82
2022/01/04 05:41:50;;;;;;;2.50;2.30;;;;;;;;;;5104540;28;20200;-81
2022/01/04 05:44:17;;;;;;;2.70;2.50;;;;;;;;;;5104773;28;20243;-82
2022/01/04 05:46:45;;;;;;;2.60;2.40;;;;;;;;;;5104887;28;20211;-82
2022/01/04 05:49:12;;;;;;;2.37;2.17;;;;;;;;;;5104656;28;20233;-81
2022/01/04 05:51:39;;;;;;;2.40;2.27;;;;;;;;;;5104810;28;20200;-82
2022/01/04 05:54:07;;;;;;;2.40;2.20;;;;;;;;;;5103764;28;20232;-85
2022/01/04 05:56:34;;;;;;;2.30;2.10;;;;;;;;;;5103839;28;20204;-81
2022/01/04 05:59:01;;;;;;;2.30;2.10;;;;;;;;;;5103573;28;20247;-81
2022/01/04 06:01:28;;;;;;;1.90;1.80;;;;;;;;;;5103795;28;20209;-81
2022/01/04 06:03:56;;;;;;;2.77;2.00;;;;;;;;;;5104307;28;20604;-82
2022/01/04 06:06:23;;;;;;;1.60;1.50;;;;;;;;;;5104544;28;20216;-84
2022/01/04 06:08:51;;;;;;;2.17;2.07;;;;;;;;;;5103859;28;20236;-82
2022/01/04 06:11:56;;;;;;;2.00;1.90;;;;;;;;;;5103198;28;20204;-82
2022/01/04 06:17:09;;;;;;;2.30;2.20;;;;;;;;;;5103317;28;20247;-81
2022/01/04 06:19:37;;;;;;;1.63;1.53;;;;;;;;;;5102251;28;20244;-81
2022/01/04 06:22:04;;;;;;;1.83;1.73;;;;;;;;;;5102756;28;20208;-83
2022/01/04 06:24:31;;;;;;;2.00;1.90;;;;;;;;;;5101859;28;20243;-81
2022/01/04 06:26:58;;;;;;;1.30;1.30;;;;;;;;;;5101686;28;20215;-82
2022/01/04 06:29:26;;;;;;;1.87;1.77;;;;;;;;;;5102350;28;20241;-83
2022/01/04 06:31:53;;;;;;;2.40;2.20;;;;;;;;;;5102582;28;20683;-82
2022/01/04 06:34:20;;;;;;;2.10;2.00;;;;;;;;;;5102298;28;20236;-82
2022/01/04 06:36:48;;;;;;;1.90;1.80;;;;;;;;;;5102652;28;20664;-82
2022/01/04 06:39:15;;;;;;;2.10;2.00;;;;;;;;;;5102453;28;20236;-82
2022/01/04 06:41:42;;;;;;;1.90;1.80;;;;;;;;;;5103541;28;20220;-82
2022/01/04 06:44:09;;;;;;;2.30;1.90;;;;;;;;;;5103807;28;20236;-81
2022/01/04 06:46:38;;;;;;;2.00;1.90;;;;;;;;;;5104857;28;20219;-83
2022/01/04 06:49:05;;;;;;;1.97;1.87;;;;;;;;;;5103938;28;20262;-82
2022/01/04 06:51:32;;;;;;;1.80;1.70;;;;;;;;;;5104310;28;20215;-82
2022/01/04 06:54:01;;;;;;;2.20;2.00;;;;;;;;;;5103652;28;20616;-82
2022/01/04 06:56:28;;;;;;;2.30;2.10;;;;;;;;;;5104782;28;20216;-81
2022/01/04 06:58:55;;;;;;;2.30;2.20;;;;;;;;;;5104424;28;20237;-81
2022/01/04 07:01:22;;;;;;;2.17;2.07;;;;;;;;;;5105593;28;20192;-82
2022/01/04 07:03:49;;;;;;;5.17;3.60;;;;;;;;;;5104029;28;20240;-84
2022/01/04 07:06:16;;;;;;;2.20;2.10;;;;;;;;;;5103188;28;20200;-82
2022/01/04 07:08:43;;;;;;;2.43;2.23;;;;;;;;;;5104258;28;20292;-83
2022/01/04 07:11:12;;;;;;;2.63;2.33;;;;;;;;;;5105246;28;20208;-82
2022/01/04 07:13:39;;;;;;;2.10;2.00;;;;;;;;;;5092982;28;20252;-83
2022/01/04 07:16:06;;;;;;;3.10;2.80;;;;;;;;;;5083305;28;20209;-83
2022/01/04 07:18:33;;;;;;;2.00;1.90;;;;;;;;;;5083204;28;20240;-81
2022/01/04 07:21:00;;;;;;;1.60;1.60;;;;;;;;;;5082912;28;20205;-82
2022/01/04 07:23:27;;;;;;;2.33;2.23;;;;;;;;;;5082998;28;20243;-81
2022/01/04 07:25:55;;;;;;;3.70;2.20;;;;;;;;;;5080689;28;20210;-80
2022/01/04 07:28:23;;;;;;;2.50;2.40;;;;;;;;;;5077235;28;20237;-84
2022/01/04 07:30:51;;;;;;;2.90;2.70;;;;;;;;;;5076600;28;20722;-84
2022/01/04 07:33:18;;;;;;;2.90;2.70;;;;;;;;;;5073282;28;20295;-83
2022/01/04 07:35:45;;;;;;;3.10;2.70;;;;;;;;;;5076284;28;20554;-83
2022/01/04 07:38:12;;;;;;;2.60;2.43;;;;;;;;;;5074337;28;20241;-86
2022/01/04 07:40:40;;;;;;;3.03;2.60;;;;;;;;;;5079155;28;20586;-84
2022/01/04 07:43:07;;;;;;;2.67;2.47;;;;;;;;;;5078890;28;20236;-85
2022/01/04 07:45:36;;;;;;;2.90;2.50;;;;;;;;;;5080364;28;20201;-85
2022/01/04 07:48:05;;;;;;;2.10;2.00;;;;;;;;;;5079325;28;20237;-85
2022/01/04 07:50:32;;;;;;;2.30;2.20;;;;;;;;;;5078952;28;20841;-86
2022/01/04 07:53:00;;;;;;;2.23;2.13;;;;;;;;;;5078832;28;20240;-85
2022/01/04 07:55:27;;;;;;;2.20;2.10;;;;;;;;;;5078209;28;20194;-85
2022/01/04 07:57:54;;;;;;;2.77;2.57;;;;;;;;;;5077238;28;20239;-85
2022/01/04 08:00:21;;;;;;;2.83;2.63;;;;;;;;;;5077356;28;20591;-85
2022/01/04 08:02:49;;;;;;;3.03;2.73;;;;;;;;;;5077539;28;20202;-85
2022/01/04 08:05:17;;;;;;;3.20;3.00;;;;;;;;;;5076723;28;20381;-86
2022/01/04 08:07:44;;;;;;;2.87;2.67;;;;;;;;;;5076064;28;20220;-85
2022/01/04 08:10:11;;;;;;;2.37;2.23;;;;;;;;;;5077233;28;20229;-85
2022/01/04 08:12:39;;;;;;;2.87;2.37;;;;;;;;;;5076596;28;20201;-86
2022/01/04 08:15:06;;;;;;;2.50;2.40;;;;;;;;;;5076003;28;20193;-86
2022/01/04 08:17:33;;;;;;;2.30;2.20;;;;;;;;;;5075665;28;20229;-87
2022/01/04 08:20:02;;;;;;;2.27;2.00;;;;;;;;;;5075487;28;21113;-86
2022/01/04 08:22:32;;;;;;;2.20;2.00;;;;;;;;;;5076171;28;20212;-85
2022/01/04 08:25:01;;;;;;;2.37;2.17;;;;;;;;;;5076821;28;20321;-84
2022/01/04 08:27:28;;;;;;;2.00;1.90;;;;;;;;;;5075344;28;20215;-86
2022/01/04 08:29:55;;;;;;;2.73;2.10;;;;;;;;;;5074903;28;20237;-86
2022/01/04 08:32:22;;;;;;;2.20;2.03;;;;;;;;;;5075208;28;20210;-85
2022/01/04 08:34:49;;;;;;;2.47;2.27;;;;;;;;;;5075505;28;20608;-87
2022/01/04 08:37:18;;;;;;;2.13;2.03;;;;;;;;;;5075176;28;20234;-85
2022/01/04 08:39:45;;;;;;;2.33;2.20;;;;;;;;;;5074326;28;20637;-87
2022/01/04 08:42:12;;;;;;;2.20;2.10;;;;;;;;;;5075000;28;20206;-86
2022/01/04 08:44:40;;;;;;;2.67;2.47;;;;;;;;;;5074402;28;20240;-85
2022/01/04 08:47:07;;;;;;;3.37;2.80;;;;;;;;;;5075027;28;20581;-85
2022/01/04 08:49:35;;;;;;;3.20;2.90;;;;;;;;;;5074060;28;20237;-86
2022/01/04 08:52:02;;;;;;;2.77;2.57;;;;;;;;;;5077441;28;20231;-86
2022/01/04 08:54:31;;;;;;;3.17;2.87;;;;;;;;;;5081809;28;20655;-84
2022/01/04 08:56:58;;;;;;;2.37;2.20;;;;;;;;;;5080944;28;20205;-82
2022/01/04 08:59:25;;;;;;;2.47;2.27;;;;;;;;;;5087548;28;20647;-85
2022/01/04 09:01:52;;;;;;;2.03;1.93;;;;;;;;;;5107696;28;20209;-83
2022/01/04 09:04:20;;;;;;;1.60;1.50;;;;;;;;;;5084449;28;20225;-83
2022/01/04 09:06:47;;;;;;;1.43;1.40;;;;;;;;;;5085548;28;20210;-84
2022/01/04 09:09:14;;;;;;;1.30;1.30;;;;;;;;;;5083754;28;20228;-83
2022/01/04 09:11:44;;;;;;;1.37;1.33;;;;;;;;;;5084505;28;20212;-84
2022/01/04 09:14:25;;;;;;;1.70;1.60;;;;;;;;;;5083814;28;20233;-84
2022/01/04 09:19:39;;;;;;;1.50;1.40;;;;;;;;;;5040482;28;20257;-83
2022/01/04 09:22:07;;;;;;;1.33;1.33;;;;;;;;;;5072238;28;20201;-83
2022/01/04 09:24:34;;;;;;;1.37;1.33;;;;;;;;;;5080648;28;20229;-84
2022/01/04 09:27:05;;;;;;;1.70;1.60;;;;;;;;;;5079844;28;20216;-83
2022/01/04 09:29:32;;;;;;;1.80;1.70;;;;;;;;;;5078745;28;20710;-84
2022/01/04 09:32:01;;;;;;;1.60;1.50;;;;;;;;;;5081426;28;20209;-83
2022/01/04 09:34:28;;;;;;;4.73;2.63;;;;;;;;;;5081362;28;20304;-84
2022/01/04 09:36:55;;;;;;;1.90;1.80;;;;;;;;;;5081036;28;20288;-83
2022/01/04 09:39:23;;;;;;;1.90;1.80;;;;;;;;;;5079438;28;20235;-83
2022/01/04 09:41:51;;;;;;;2.03;1.93;;;;;;;;;;5079365;28;20248;-84
2022/01/04 09:44:19;;;;;;;2.10;1.70;;;;;;;;;;5079148;28;20312;-86
2022/01/04 09:46:46;;;;;;;2.17;1.90;;;;;;;;;;5080350;28;20205;-85
2022/01/04 09:49:14;;;;;;;3.00;2.00;;;;;;;;;;5082927;28;20245;-83
2022/01/04 09:51:42;;;;;;;1.60;1.60;;;;;;;;;;5083046;28;20224;-84
2022/01/04 09:54:09;;;;;;;2.27;2.17;;;;;;;;;;5078302;28;20237;-85
2022/01/04 09:56:36;;;;;;;1.60;1.60;;;;;;;;;;5074887;28;20205;-85
2022/01/04 09:59:04;;;;;;;3.13;1.83;;;;;;;;;;5078514;28;20244;-83
2022/01/04 10:01:36;;;;;;;1.90;1.80;;;;;;;;;;5068537;28;20275;-86
2022/01/04 10:04:04;;;;;;;1.67;1.57;;;;;;;;;;5075447;28;20236;-85
2022/01/04 10:06:31;;;;;;;1.60;1.60;;;;;;;;;;5090407;28;20572;-85
2022/01/04 10:09:00;;;;;;;1.70;1.60;;;;;;;;;;5074446;28;20237;-85
2022/01/04 10:11:31;;;;;;;1.80;1.70;;;;;;;;;;5075454;28;20248;-85
2022/01/04 10:13:59;;;;;;;1.70;1.60;;;;;;;;;;5074819;28;20265;-84
2022/01/04 10:16:26;;;;;;;3.03;1.70;;;;;;;;;;5074712;28;20213;-85
2022/01/04 10:18:55;;;;;;;2.40;1.70;;;;;;;;;;5074544;28;20733;-85
2022/01/04 10:21:22;;;;;;;1.80;1.70;;;;;;;;;;5074273;28;20214;-85
2022/01/04 10:23:52;;;;;;;1.50;1.40;;;;;;;;;;5072963;28;20751;-87
2022/01/04 10:26:27;;;;;;;2.80;1.50;;;;;;;;;;5073842;28;20259;-86
2022/01/04 10:28:55;;;;;;;2.40;1.50;;;;;;;;;;5072575;28;20265;-86
2022/01/04 10:31:22;;;;;;;1.73;1.50;;;;;;;;;;5073181;28;20568;-85
2022/01/04 10:33:52;;;;;;;1.43;1.40;;;;;;;;;;5073130;28;20636;-85
2022/01/04 10:36:21;;;;;;;2.13;1.70;;;;;;;;;;5074438;28;20638;-85
2022/01/04 10:38:50;;;;;;;1.60;1.50;;;;;;;;;;5074024;28;20270;-85
2022/01/04 10:41:21;;;;;;;1.47;1.47;;;;;;;;;;5075172;28;20213;-84
2022/01/04 10:43:50;;;;;;;2.50;1.57;;;;;;;;;;5075145;28;20232;-85
2022/01/04 10:46:18;;;;;;;1.70;1.60;;;;;;;;;;5074662;28;20750;-86
2022/01/04 10:48:46;;;;;;;1.63;1.53;;;;;;;;;;5075687;28;20347;-85
2022/01/04 10:51:14;;;;;;;1.97;1.87;;;;;;;;;;5075018;28;20704;-85
2022/01/04 10:53:46;;;;;;;2.00;1.80;;;;;;;;;;5074528;28;20331;-85
2022/01/04 10:56:14;;;;;;;1.90;1.80;;;;;;;;;;5069190;28;20202;-85
2022/01/04 10:58:42;;;;;;;1.90;1.80;;;;;;;;;;5083126;28;20236;-85
2022/01/04 11:01:10;;;;;;;2.07;1.97;;;;;;;;;;5095403;28;20204;-85
2022/01/04 11:03:38;;;;;;;2.10;2.00;;;;;;;;;;5095893;28;20231;-85
2022/01/04 11:06:07;;;;;;;1.63;1.60;;;;;;;;;;5074193;28;20300;-85
2022/01/04 11:08:34;;;;;;;1.87;1.77;;;;;;;;;;5075736;28;20237;-85
2022/01/04 11:11:03;;;;;;;2.03;1.93;;;;;;;;;;5076602;28;20669;-85
2022/01/04 11:13:30;;;;;;;2.10;2.00;;;;;;;;;;5076930;28;20233;-85
2022/01/04 11:15:58;;;;;;;2.00;1.90;;;;;;;;;;5079069;28;20212;-85
2022/01/04 11:18:25;;;;;;;1.90;1.80;;;;;;;;;;5081157;28;20233;-85
2022/01/04 11:20:52;;;;;;;1.80;1.70;;;;;;;;;;5080348;28;20217;-85
2022/01/04 11:23:24;;;;;;;1.90;1.80;;;;;;;;;;5080755;28;20229;-84
2022/01/04 11:25:51;;;;;;;1.93;1.83;;;;;;;;;;5079767;28;20209;-87
2022/01/04 11:28:20;;;;;;;1.90;1.80;;;;;;;;;;5077928;28;20229;-85
2022/01/04 11:31:02;;;;;;;1.70;1.60;;;;;;;;;;5077734;28;20201;-88
2022/01/04 11:33:31;;;;;;;1.67;1.57;;;;;;;;;;5075481;28;20233;-87
2022/01/04 11:35:58;;;;;;;1.77;1.50;;;;;;;;;;5077703;28;20206;-85
2022/01/04 11:38:32;;;;;;;3.00;1.60;;;;;;;;;;5077585;28;20244;-86
2022/01/04 11:40:59;;;;;;;1.90;1.80;;;;;;;;;;5078257;28;20246;-87
2022/01/04 11:43:29;;;;;;;1.80;1.70;;;;;;;;;;5077743;28;20233;-85
2022/01/04 11:45:56;;;;;;;1.90;1.80;;;;;;;;;;5078328;28;20235;-85
2022/01/04 11:48:27;;;;;;;1.90;1.80;;;;;;;;;;5074302;28;20606;-85
2022/01/04 11:50:55;;;;;;;2.30;1.90;;;;;;;;;;5057514;28;20206;-85
2022/01/04 11:53:22;;;;;;;1.70;1.60;;;;;;;;;;5058982;28;20736;-85
2022/01/04 11:55:50;;;;;;;1.40;1.40;;;;;;;;;;5057005;28;20693;-85
2022/01/04 11:58:20;;;;;;;1.30;1.30;;;;;;;;;;5077187;28;20229;-85
2022/01/04 12:00:57;;;;;;;1.43;1.30;;;;;;;;;;5077658;28;20201;-85
2022/01/04 12:03:37;;;;;;;1.50;1.50;;;;;;;;;;5077707;28;20705;-86
2022/01/04 12:06:05;;;;;;;1.10;1.10;;;;;;;;;;5079217;28;20315;-86
2022/01/04 12:08:35;;;;;;;1.23;1.23;;;;;;;;;;5077103;28;20283;-85
2022/01/04 12:11:02;;;;;;;1.20;1.10;;;;;;;;;;5077044;28;20182;-86
2022/01/04 12:13:49;;;;;;;1.20;1.20;;;;;;;;;;5076588;28;20237;-86
2022/01/04 12:16:30;;;;;;;1.40;1.40;;;;;;;;;;5076066;28;20216;-87
2022/01/04 12:18:58;;;;;;;1.00;1.00;;;;;;;;;;5075899;28;20233;-87
2022/01/04 12:21:27;;;;;;;1.20;1.20;;;;;;;;;;5076738;28;20272;-86
2022/01/04 12:23:54;;;;;;;1.33;1.20;;;;;;;;;;5075860;28;20233;-86
2022/01/04 12:26:26;;;;;;;1.40;1.40;;;;;;;;;;5074497;28;20213;-86
2022/01/04 12:29:12;;;;;;;1.30;1.30;;;;;;;;;;5076276;28;20235;-84
2022/01/04 12:31:46;;;;;;;1.80;1.33;;;;;;;;;;5080342;28;20209;-86
2022/01/04 12:34:26;;;;;;;1.20;1.20;;;;;;;;;;5079545;28;20238;-86
2022/01/04 12:36:54;;;;;;;1.23;1.23;;;;;;;;;;5080101;28;20205;-85
2022/01/04 12:39:22;;;;;;;1.30;1.30;;;;;;;;;;5080381;28;20237;-84
2022/01/04 12:41:51;;;;;;;1.10;1.10;;;;;;;;;;5082013;28;20205;-83
2022/01/04 12:44:23;;;;;;;1.27;1.27;;;;;;;;;;5082269;28;20259;-83
2022/01/04 12:46:51;;;;;;;1.30;1.30;;;;;;;;;;5079418;28;20653;-85
2022/01/04 12:49:19;;;;;;;1.20;1.20;;;;;;;;;;5078713;28;20229;-85
2022/01/04 12:51:47;;;;;;;1.50;1.40;;;;;;;;;;5094015;28;20208;-88
2022/01/04 12:54:15;;;;;;;1.50;1.50;;;;;;;;;;5098501;28;20228;-89
2022/01/04 12:56:46;;;;;;;1.50;1.40;;;;;;;;;;5080720;28;20549;-84
2022/01/04 12:59:28;;;;;;;2.07;1.90;;;;;;;;;;5074046;28;20226;-85
2022/01/04 13:01:58;;;;;;;1.77;1.67;;;;;;;;;;5074727;28;20189;-86
2022/01/04 13:04:26;;;;;;;1.80;1.70;;;;;;;;;;5074775;28;20853;-84
2022/01/04 13:06:53;;;;;;;1.70;1.60;;;;;;;;;;5075630;28;20205;-83
2022/01/04 13:09:21;;;;;;;2.30;1.70;;;;;;;;;;5075364;28;20229;-84
2022/01/04 13:11:49;;;;;;;1.40;1.40;;;;;;;;;;5076276;28;20210;-85
2022/01/04 13:14:20;;;;;;;1.40;1.40;;;;;;;;;;5082900;28;20252;-87
2022/01/04 13:16:48;;;;;;;1.80;1.70;;;;;;;;;;5081952;28;20194;-85
2022/01/04 13:19:17;;;;;;;1.97;1.63;;;;;;;;;;5077653;28;20240;-84
2022/01/04 13:21:53;;;;;;;1.90;1.80;;;;;;;;;;5077474;28;20205;-85
2022/01/04 13:24:28;;;;;;;1.90;1.80;;;;;;;;;;5078270;28;20228;-84
2022/01/04 13:26:56;;;;;;;3.70;1.90;;;;;;;;;;5075298;28;20204;-85
2022/01/04 13:29:24;;;;;;;2.30;2.10;;;;;;;;;;5073534;28;20283;-88
2022/01/04 13:31:51;;;;;;;1.93;1.83;;;;;;;;;;5074686;28;20205;-87
2022/01/04 13:34:22;;;;;;;3.23;2.00;;;;;;;;;;5074186;28;20232;-85
2022/01/04 13:36:50;;;;;;;2.10;1.90;;;;;;;;;;5074599;28;20197;-86
2022/01/04 13:39:17;;;;;;;1.53;1.50;;;;;;;;;;5074492;28;20233;-87
2022/01/04 13:41:44;;;;;;;1.80;1.70;;;;;;;;;;5075635;28;20653;-84
2022/01/04 13:44:11;;;;;;;1.80;1.70;;;;;;;;;;5074399;28;20236;-84
2022/01/04 13:46:38;;;;;;;1.90;1.80;;;;;;;;;;5076016;28;20234;-84
2022/01/04 13:49:05;;;;;;;2.30;2.10;;;;;;;;;;5075903;28;20318;-84
2022/01/04 13:51:35;;;;;;;2.37;2.20;;;;;;;;;;5075679;28;20201;-84
2022/01/04 13:54:10;;;;;;;2.70;2.50;;;;;;;;;;5074614;28;20324;-85
2022/01/04 13:56:37;;;;;;;4.20;2.17;;;;;;;;;;5074228;28;20207;-86
2022/01/04 13:59:05;;;;;;;3.33;2.83;;;;;;;;;;5074272;28;20241;-83
2022/01/04 14:01:36;;;;;;;2.60;2.40;;;;;;;;;;5077669;28;20204;-85
2022/01/04 14:04:16;;;;;;;2.87;2.67;;;;;;;;;;5073865;28;20233;-84
2022/01/04 14:06:47;;;;;;;3.20;3.00;;;;;;;;;;5077192;28;20193;-86
2022/01/04 14:09:25;;;;;;;2.63;2.43;;;;;;;;;;5077312;28;20237;-85
2022/01/04 14:11:54;;;;;;;2.50;2.30;;;;;;;;;;5079185;28;20299;-84
2022/01/04 14:14:22;;;;;;;2.60;2.40;;;;;;;;;;5075683;28;20232;-84
2022/01/04 14:16:52;;;;;;;2.70;2.57;;;;;;;;;;5078598;28;20265;-83
2022/01/04 14:19:20;;;;;;;2.63;2.43;;;;;;;;;;5082260;28;20241;-84
2022/01/04 14:21:55;;;;;;;2.70;2.50;;;;;;;;;;5081997;28;20201;-84
2022/01/04 14:24:36;;;;;;;3.93;2.70;;;;;;;;;;5079018;28;20262;-85
2022/01/04 14:27:04;;;;;;;2.40;2.30;;;;;;;;;;5079704;28;20205;-84
2022/01/04 14:29:32;;;;;;;2.87;2.67;;;;;;;;;;5077777;28;20286;-84
2022/01/04 14:32:02;;;;;;;3.03;2.73;;;;;;;;;;5078498;28;20245;-84
2022/01/04 14:34:30;;;;;;;2.90;2.70;;;;;;;;;;5079427;28;20242;-84
2022/01/04 14:36:58;;;;;;;4.17;2.83;;;;;;;;;;5081050;28;20205;-84
2022/01/04 14:39:26;;;;;;;3.20;2.90;;;;;;;;;;5078750;28;20237;-85
2022/01/04 14:41:53;;;;;;;3.33;2.70;;;;;;;;;;5079663;28;20292;-84
2022/01/04 14:44:20;;;;;;;3.33;2.87;;;;;;;;;;5078352;28;20232;-84
2022/01/04 14:46:47;;;;;;;3.30;2.80;;;;;;;;;;5079380;28;20213;-85
2022/01/04 14:49:14;;;;;;;3.65;3.00;;;;;;;;;;5078663;28;20933;-84
2022/01/04 14:51:41;;;;;;;2.70;2.50;;;;;;;;;;5079672;28;20198;-84
2022/01/04 14:54:10;;;;;;;2.67;2.47;;;;;;;;;;5080027;28;20237;-84
2022/01/04 14:56:37;;;;;;;2.63;2.43;;;;;;;;;;5080484;28;20209;-85